sensor_id;sensor_type;location;lat;lon;timestamp;P1;durP1;ratioP1;P2;durP2;ratioP2
55114;SDS011;41010;53.252;5.786;2023-01-25T00:01:32;41.83;;;21.27;;
55114;SDS011;41010;53.252;5.786;2023-01-25T00:03:59;35.42;;;21.05;;
55114;SDS011;41010;53.252;5.786;2023-01-25T00:06:28;41.10;;;22.50;;
55114;SDS011;41010;53.252;5.786;2023-01-25T00:08:55;39.22;;;22.67;;
55114;SDS011;41010;53.252;5.786;2023-01-25T00:11:22;42.40;;;22.60;;
55114;SDS011;41010;53.252;5.786;2023-01-25T00:13:51;39.03;;;22.33;;
55114;SDS011;41010;53.252;5.786;2023-01-25T00:16:19;38.75;;;22.48;;
55114;SDS011;41010;53.252;5.786;2023-01-25T00:18:46;42.33;;;22.75;;
55114;SDS011;41010;53.252;5.786;2023-01-25T00:21:14;39.15;;;21.65;;
55114;SDS011;41010;53.252;5.786;2023-01-25T00:23:43;39.08;;;22.42;;
55114;SDS011;41010;53.252;5.786;2023-01-25T00:26:10;38.95;;;22.23;;
55114;SDS011;41010;53.252;5.786;2023-01-25T00:28:37;44.05;;;23.55;;
55114;SDS011;41010;53.252;5.786;2023-01-25T00:31:05;38.88;;;22.33;;
55114;SDS011;41010;53.252;5.786;2023-01-25T00:33:37;42.42;;;22.17;;
55114;SDS011;41010;53.252;5.786;2023-01-25T00:36:24;41.97;;;22.88;;
55114;SDS011;41010;53.252;5.786;2023-01-25T00:38:53;41.00;;;22.27;;
55114;SDS011;41010;53.252;5.786;2023-01-25T00:41:23;38.85;;;22.48;;
55114;SDS011;41010;53.252;5.786;2023-01-25T00:43:50;40.50;;;22.73;;
55114;SDS011;41010;53.252;5.786;2023-01-25T00:46:17;41.30;;;22.67;;
55114;SDS011;41010;53.252;5.786;2023-01-25T00:48:45;41.88;;;23.48;;
55114;SDS011;41010;53.252;5.786;2023-01-25T00:51:12;41.97;;;21.75;;
55114;SDS011;41010;53.252;5.786;2023-01-25T00:53:39;42.47;;;22.20;;
55114;SDS011;41010;53.252;5.786;2023-01-25T00:56:08;40.13;;;21.88;;
55114;SDS011;41010;53.252;5.786;2023-01-25T00:58:35;36.88;;;20.63;;
55114;SDS011;41010;53.252;5.786;2023-01-25T01:01:02;41.47;;;22.92;;
55114;SDS011;41010;53.252;5.786;2023-01-25T01:03:30;39.03;;;21.92;;
55114;SDS011;41010;53.252;5.786;2023-01-25T01:05:58;38.33;;;21.60;;
55114;SDS011;41010;53.252;5.786;2023-01-25T01:08:25;40.17;;;21.80;;
55114;SDS011;41010;53.252;5.786;2023-01-25T01:10:57;38.17;;;21.92;;
55114;SDS011;41010;53.252;5.786;2023-01-25T01:13:26;41.30;;;22.38;;
55114;SDS011;41010;53.252;5.786;2023-01-25T01:15:53;40.30;;;21.98;;
55114;SDS011;41010;53.252;5.786;2023-01-25T01:18:21;45.58;;;22.73;;
55114;SDS011;41010;53.252;5.786;2023-01-25T01:20:48;41.83;;;22.63;;
55114;SDS011;41010;53.252;5.786;2023-01-25T01:23:15;38.03;;;21.35;;
55114;SDS011;41010;53.252;5.786;2023-01-25T01:25:43;41.83;;;22.85;;
55114;SDS011;41010;53.252;5.786;2023-01-25T01:28:10;41.83;;;24.25;;
55114;SDS011;41010;53.252;5.786;2023-01-25T01:30:39;44.17;;;23.42;;
55114;SDS011;41010;53.252;5.786;2023-01-25T01:33:07;40.85;;;22.55;;
55114;SDS011;41010;53.252;5.786;2023-01-25T01:35:34;39.47;;;22.67;;
55114;SDS011;41010;53.252;5.786;2023-01-25T01:38:02;38.15;;;21.98;;
55114;SDS011;41010;53.252;5.786;2023-01-25T01:40:29;35.10;;;21.60;;
55114;SDS011;41010;53.252;5.786;2023-01-25T01:42:57;42.53;;;23.30;;
55114;SDS011;41010;53.252;5.786;2023-01-25T01:48:11;42.58;;;22.80;;
55114;SDS011;41010;53.252;5.786;2023-01-25T01:50:41;41.25;;;23.27;;
55114;SDS011;41010;53.252;5.786;2023-01-25T01:53:08;41.38;;;22.08;;
55114;SDS011;41010;53.252;5.786;2023-01-25T01:55:36;40.78;;;21.15;;
55114;SDS011;41010;53.252;5.786;2023-01-25T01:58:03;38.40;;;20.88;;
55114;SDS011;41010;53.252;5.786;2023-01-25T02:00:33;43.10;;;23.55;;
55114;SDS011;41010;53.252;5.786;2023-01-25T02:03:00;37.75;;;19.55;;
55114;SDS011;41010;53.252;5.786;2023-01-25T02:05:31;38.17;;;22.02;;
55114;SDS011;41010;53.252;5.786;2023-01-25T02:07:59;38.78;;;20.95;;
55114;SDS011;41010;53.252;5.786;2023-01-25T02:10:29;41.80;;;22.35;;
55114;SDS011;41010;53.252;5.786;2023-01-25T02:12:56;38.95;;;20.85;;
55114;SDS011;41010;53.252;5.786;2023-01-25T02:15:26;40.53;;;22.48;;
55114;SDS011;41010;53.252;5.786;2023-01-25T02:17:53;44.25;;;23.65;;
55114;SDS011;41010;53.252;5.786;2023-01-25T02:20:22;40.33;;;21.92;;
55114;SDS011;41010;53.252;5.786;2023-01-25T02:22:54;40.78;;;21.95;;
55114;SDS011;41010;53.252;5.786;2023-01-25T02:25:24;46.17;;;24.05;;
55114;SDS011;41010;53.252;5.786;2023-01-25T02:27:53;48.80;;;23.58;;
55114;SDS011;41010;53.252;5.786;2023-01-25T02:30:21;53.17;;;27.35;;
55114;SDS011;41010;53.252;5.786;2023-01-25T02:32:49;50.80;;;26.00;;
55114;SDS011;41010;53.252;5.786;2023-01-25T02:35:17;47.03;;;26.13;;
55114;SDS011;41010;53.252;5.786;2023-01-25T02:37:44;47.55;;;24.60;;
55114;SDS011;41010;53.252;5.786;2023-01-25T02:40:12;52.63;;;26.88;;
55114;SDS011;41010;53.252;5.786;2023-01-25T02:42:41;52.42;;;26.27;;
55114;SDS011;41010;53.252;5.786;2023-01-25T02:45:10;49.35;;;25.75;;
55114;SDS011;41010;53.252;5.786;2023-01-25T02:47:39;51.50;;;26.00;;
55114;SDS011;41010;53.252;5.786;2023-01-25T02:50:06;58.80;;;27.60;;
55114;SDS011;41010;53.252;5.786;2023-01-25T02:52:34;56.80;;;28.20;;
55114;SDS011;41010;53.252;5.786;2023-01-25T02:55:01;60.97;;;29.05;;
55114;SDS011;41010;53.252;5.786;2023-01-25T02:57:28;54.80;;;27.60;;
55114;SDS011;41010;53.252;5.786;2023-01-25T02:59:57;57.00;;;28.02;;
55114;SDS011;41010;53.252;5.786;2023-01-25T03:02:24;59.70;;;29.20;;
55114;SDS011;41010;53.252;5.786;2023-01-25T03:04:51;59.17;;;29.08;;
55114;SDS011;41010;53.252;5.786;2023-01-25T03:07:18;65.68;;;30.10;;
55114;SDS011;41010;53.252;5.786;2023-01-25T03:09:46;68.07;;;31.38;;
55114;SDS011;41010;53.252;5.786;2023-01-25T03:12:13;64.18;;;32.00;;
55114;SDS011;41010;53.252;5.786;2023-01-25T03:14:40;65.95;;;31.85;;
55114;SDS011;41010;53.252;5.786;2023-01-25T03:17:09;67.75;;;32.53;;
55114;SDS011;41010;53.252;5.786;2023-01-25T03:19:37;61.22;;;31.45;;
55114;SDS011;41010;53.252;5.786;2023-01-25T03:22:04;66.32;;;32.63;;
55114;SDS011;41010;53.252;5.786;2023-01-25T03:24:33;67.95;;;32.42;;
55114;SDS011;41010;53.252;5.786;2023-01-25T03:27:01;64.03;;;31.85;;
55114;SDS011;41010;53.252;5.786;2023-01-25T03:29:38;61.67;;;30.60;;
55114;SDS011;41010;53.252;5.786;2023-01-25T03:32:05;61.10;;;30.08;;
55114;SDS011;41010;53.252;5.786;2023-01-25T03:34:34;61.00;;;30.95;;
55114;SDS011;41010;53.252;5.786;2023-01-25T03:37:01;68.72;;;31.67;;
55114;SDS011;41010;53.252;5.786;2023-01-25T03:39:28;64.05;;;30.45;;
55114;SDS011;41010;53.252;5.786;2023-01-25T03:41:56;66.43;;;31.83;;
55114;SDS011;41010;53.252;5.786;2023-01-25T03:44:23;61.55;;;29.90;;
55114;SDS011;41010;53.252;5.786;2023-01-25T03:46:50;60.33;;;29.25;;
55114;SDS011;41010;53.252;5.786;2023-01-25T03:49:17;60.83;;;30.30;;
55114;SDS011;41010;53.252;5.786;2023-01-25T03:51:46;67.30;;;31.15;;
55114;SDS011;41010;53.252;5.786;2023-01-25T03:54:13;69.63;;;31.75;;
55114;SDS011;41010;53.252;5.786;2023-01-25T03:56:40;68.00;;;31.05;;
55114;SDS011;41010;53.252;5.786;2023-01-25T03:59:08;73.68;;;31.10;;
55114;SDS011;41010;53.252;5.786;2023-01-25T04:01:36;71.70;;;30.58;;
55114;SDS011;41010;53.252;5.786;2023-01-25T04:04:03;70.35;;;31.05;;
55114;SDS011;41010;53.252;5.786;2023-01-25T04:06:30;68.75;;;31.63;;
55114;SDS011;41010;53.252;5.786;2023-01-25T04:08:59;72.47;;;31.33;;
55114;SDS011;41010;53.252;5.786;2023-01-25T04:11:26;74.43;;;31.98;;
55114;SDS011;41010;53.252;5.786;2023-01-25T04:13:53;77.53;;;33.05;;
55114;SDS011;41010;53.252;5.786;2023-01-25T04:16:20;76.30;;;31.85;;
55114;SDS011;41010;53.252;5.786;2023-01-25T04:18:48;76.05;;;32.08;;
55114;SDS011;41010;53.252;5.786;2023-01-25T04:21:15;71.60;;;32.72;;
55114;SDS011;41010;53.252;5.786;2023-01-25T04:23:42;74.15;;;32.38;;
55114;SDS011;41010;53.252;5.786;2023-01-25T04:26:11;72.32;;;32.83;;
55114;SDS011;41010;53.252;5.786;2023-01-25T04:28:38;71.22;;;30.95;;
55114;SDS011;41010;53.252;5.786;2023-01-25T04:31:06;73.15;;;30.95;;
55114;SDS011;41010;53.252;5.786;2023-01-25T04:33:33;73.60;;;31.10;;
55114;SDS011;41010;53.252;5.786;2023-01-25T04:36:00;70.70;;;31.77;;
55114;SDS011;41010;53.252;5.786;2023-01-25T04:38:28;73.03;;;32.55;;
55114;SDS011;41010;53.252;5.786;2023-01-25T04:40:55;74.85;;;32.00;;
55114;SDS011;41010;53.252;5.786;2023-01-25T04:43:24;69.70;;;31.08;;
55114;SDS011;41010;53.252;5.786;2023-01-25T04:45:51;72.70;;;30.90;;
55114;SDS011;41010;53.252;5.786;2023-01-25T04:48:18;76.70;;;33.45;;
55114;SDS011;41010;53.252;5.786;2023-01-25T04:50:45;79.93;;;34.10;;
55114;SDS011;41010;53.252;5.786;2023-01-25T04:53:13;83.68;;;32.65;;
55114;SDS011;41010;53.252;5.786;2023-01-25T04:55:45;74.57;;;32.55;;
55114;SDS011;41010;53.252;5.786;2023-01-25T04:58:13;82.07;;;34.10;;
55114;SDS011;41010;53.252;5.786;2023-01-25T05:00:41;79.68;;;33.13;;
55114;SDS011;41010;53.252;5.786;2023-01-25T05:03:08;82.80;;;33.50;;
55114;SDS011;41010;53.252;5.786;2023-01-25T05:05:36;81.13;;;34.33;;
55114;SDS011;41010;53.252;5.786;2023-01-25T05:08:03;75.32;;;32.95;;
55114;SDS011;41010;53.252;5.786;2023-01-25T05:10:30;73.95;;;31.63;;
55114;SDS011;41010;53.252;5.786;2023-01-25T05:12:57;74.80;;;32.65;;
55114;SDS011;41010;53.252;5.786;2023-01-25T05:15:26;74.90;;;32.33;;
55114;SDS011;41010;53.252;5.786;2023-01-25T05:17:55;70.40;;;31.67;;
55114;SDS011;41010;53.252;5.786;2023-01-25T05:20:22;70.82;;;32.95;;
55114;SDS011;41010;53.252;5.786;2023-01-25T05:22:49;70.38;;;33.33;;
55114;SDS011;41010;53.252;5.786;2023-01-25T05:25:16;67.50;;;30.92;;
55114;SDS011;41010;53.252;5.786;2023-01-25T05:28:02;65.95;;;31.35;;
55114;SDS011;41010;53.252;5.786;2023-01-25T05:30:30;71.25;;;33.42;;
55114;SDS011;41010;53.252;5.786;2023-01-25T05:32:59;72.22;;;32.03;;
55114;SDS011;41010;53.252;5.786;2023-01-25T05:35:26;65.18;;;30.13;;
55114;SDS011;41010;53.252;5.786;2023-01-25T05:37:55;63.83;;;30.65;;
55114;SDS011;41010;53.252;5.786;2023-01-25T05:40:22;65.88;;;30.58;;
55114;SDS011;41010;53.252;5.786;2023-01-25T05:42:52;60.53;;;30.17;;
55114;SDS011;41010;53.252;5.786;2023-01-25T05:45:19;59.17;;;30.80;;
55114;SDS011;41010;53.252;5.786;2023-01-25T05:47:50;59.42;;;30.70;;
55114;SDS011;41010;53.252;5.786;2023-01-25T05:50:19;62.63;;;30.52;;
55114;SDS011;41010;53.252;5.786;2023-01-25T05:52:46;55.92;;;29.02;;
55114;SDS011;41010;53.252;5.786;2023-01-25T05:55:14;66.50;;;31.88;;
55114;SDS011;41010;53.252;5.786;2023-01-25T05:57:41;60.97;;;31.42;;
55114;SDS011;41010;53.252;5.786;2023-01-25T06:00:09;65.95;;;33.08;;
55114;SDS011;41010;53.252;5.786;2023-01-25T06:02:36;63.63;;;31.73;;
55114;SDS011;41010;53.252;5.786;2023-01-25T06:05:04;67.13;;;33.90;;
55114;SDS011;41010;53.252;5.786;2023-01-25T06:07:33;65.57;;;32.33;;
55114;SDS011;41010;53.252;5.786;2023-01-25T06:10:01;70.93;;;34.33;;
55114;SDS011;41010;53.252;5.786;2023-01-25T06:12:28;64.03;;;31.88;;
55114;SDS011;41010;53.252;5.786;2023-01-25T06:14:56;63.25;;;31.65;;
55114;SDS011;41010;53.252;5.786;2023-01-25T06:17:23;67.53;;;33.53;;
55114;SDS011;41010;53.252;5.786;2023-01-25T06:19:50;68.68;;;33.38;;
55114;SDS011;41010;53.252;5.786;2023-01-25T06:22:17;67.53;;;33.45;;
55114;SDS011;41010;53.252;5.786;2023-01-25T06:24:46;67.40;;;34.30;;
55114;SDS011;41010;53.252;5.786;2023-01-25T06:27:13;66.60;;;34.30;;
55114;SDS011;41010;53.252;5.786;2023-01-25T06:29:40;69.93;;;33.17;;
55114;SDS011;41010;53.252;5.786;2023-01-25T06:32:08;61.30;;;32.13;;
55114;SDS011;41010;53.252;5.786;2023-01-25T06:34:35;65.55;;;32.95;;
55114;SDS011;41010;53.252;5.786;2023-01-25T06:37:02;68.82;;;34.15;;
55114;SDS011;41010;53.252;5.786;2023-01-25T06:39:29;64.72;;;33.40;;
55114;SDS011;41010;53.252;5.786;2023-01-25T06:41:58;63.97;;;32.75;;
55114;SDS011;41010;53.252;5.786;2023-01-25T06:44:25;65.97;;;33.25;;
55114;SDS011;41010;53.252;5.786;2023-01-25T06:46:54;63.45;;;30.45;;
55114;SDS011;41010;53.252;5.786;2023-01-25T06:49:22;64.68;;;30.63;;
55114;SDS011;41010;53.252;5.786;2023-01-25T06:51:49;62.65;;;30.33;;
55114;SDS011;41010;53.252;5.786;2023-01-25T06:54:16;65.80;;;30.13;;
55114;SDS011;41010;53.252;5.786;2023-01-25T06:56:43;59.03;;;29.73;;
55114;SDS011;41010;53.252;5.786;2023-01-25T06:59:12;63.15;;;29.25;;
55114;SDS011;41010;53.252;5.786;2023-01-25T07:01:40;69.55;;;29.42;;
55114;SDS011;41010;53.252;5.786;2023-01-25T07:04:07;60.92;;;28.33;;
55114;SDS011;41010;53.252;5.786;2023-01-25T07:06:35;60.58;;;28.70;;
55114;SDS011;41010;53.252;5.786;2023-01-25T07:09:03;63.15;;;30.70;;
55114;SDS011;41010;53.252;5.786;2023-01-25T07:11:30;64.90;;;29.80;;
55114;SDS011;41010;53.252;5.786;2023-01-25T07:13:57;65.75;;;28.90;;
55114;SDS011;41010;53.252;5.786;2023-01-25T07:16:26;69.13;;;30.90;;
55114;SDS011;41010;53.252;5.786;2023-01-25T07:19:00;64.30;;;29.73;;
55114;SDS011;41010;53.252;5.786;2023-01-25T07:21:27;67.57;;;29.20;;
55114;SDS011;41010;53.252;5.786;2023-01-25T07:23:55;65.90;;;28.73;;
55114;SDS011;41010;53.252;5.786;2023-01-25T07:26:26;66.97;;;29.67;;
55114;SDS011;41010;53.252;5.786;2023-01-25T07:28:55;68.55;;;29.20;;
55114;SDS011;41010;53.252;5.786;2023-01-25T07:31:22;61.78;;;27.95;;
55114;SDS011;41010;53.252;5.786;2023-01-25T07:33:52;64.60;;;28.48;;
55114;SDS011;41010;53.252;5.786;2023-01-25T07:36:19;63.15;;;26.95;;
55114;SDS011;41010;53.252;5.786;2023-01-25T07:38:46;63.08;;;27.35;;
55114;SDS011;41010;53.252;5.786;2023-01-25T07:41:14;64.55;;;26.98;;
55114;SDS011;41010;53.252;5.786;2023-01-25T07:43:41;62.17;;;27.67;;
55114;SDS011;41010;53.252;5.786;2023-01-25T07:46:09;63.45;;;28.58;;
55114;SDS011;41010;53.252;5.786;2023-01-25T07:48:37;66.82;;;28.00;;
55114;SDS011;41010;53.252;5.786;2023-01-25T07:51:06;65.13;;;28.70;;
55114;SDS011;41010;53.252;5.786;2023-01-25T07:53:37;68.75;;;29.55;;
55114;SDS011;41010;53.252;5.786;2023-01-25T07:56:05;66.03;;;28.80;;
55114;SDS011;41010;53.252;5.786;2023-01-25T07:58:32;71.20;;;31.17;;
55114;SDS011;41010;53.252;5.786;2023-01-25T08:01:04;66.82;;;29.42;;
55114;SDS011;41010;53.252;5.786;2023-01-25T08:03:32;75.45;;;33.00;;
55114;SDS011;41010;53.252;5.786;2023-01-25T08:05:59;73.32;;;32.05;;
55114;SDS011;41010;53.252;5.786;2023-01-25T08:08:30;74.32;;;32.05;;
55114;SDS011;41010;53.252;5.786;2023-01-25T08:10:59;78.85;;;32.10;;
55114;SDS011;41010;53.252;5.786;2023-01-25T08:13:26;79.55;;;32.70;;
55114;SDS011;41010;53.252;5.786;2023-01-25T08:15:53;72.93;;;32.38;;
55114;SDS011;41010;53.252;5.786;2023-01-25T08:18:21;77.22;;;32.13;;
55114;SDS011;41010;53.252;5.786;2023-01-25T08:20:49;84.03;;;32.20;;
55114;SDS011;41010;53.252;5.786;2023-01-25T08:23:17;77.57;;;31.08;;
55114;SDS011;41010;53.252;5.786;2023-01-25T08:25:46;76.82;;;32.13;;
55114;SDS011;41010;53.252;5.786;2023-01-25T08:28:13;78.20;;;31.75;;
55114;SDS011;41010;53.252;5.786;2023-01-25T08:30:40;76.18;;;32.13;;
55114;SDS011;41010;53.252;5.786;2023-01-25T08:33:07;78.45;;;30.30;;
55114;SDS011;41010;53.252;5.786;2023-01-25T08:35:34;66.60;;;29.02;;
55114;SDS011;41010;53.252;5.786;2023-01-25T08:38:02;69.75;;;29.95;;
55114;SDS011;41010;53.252;5.786;2023-01-25T08:40:29;68.90;;;29.77;;
55114;SDS011;41010;53.252;5.786;2023-01-25T08:42:57;74.45;;;30.15;;
55114;SDS011;41010;53.252;5.786;2023-01-25T08:45:25;74.82;;;29.92;;
55114;SDS011;41010;53.252;5.786;2023-01-25T08:47:52;74.63;;;30.30;;
55114;SDS011;41010;53.252;5.786;2023-01-25T08:50:19;72.28;;;28.52;;
55114;SDS011;41010;53.252;5.786;2023-01-25T08:52:46;70.72;;;27.63;;
55114;SDS011;41010;53.252;5.786;2023-01-25T08:55:14;71.43;;;26.92;;
55114;SDS011;41010;53.252;5.786;2023-01-25T08:57:41;76.53;;;28.92;;
55114;SDS011;41010;53.252;5.786;2023-01-25T09:00:10;72.50;;;28.17;;
55114;SDS011;41010;53.252;5.786;2023-01-25T09:02:38;73.97;;;27.83;;
55114;SDS011;41010;53.252;5.786;2023-01-25T09:05:05;75.80;;;27.15;;
55114;SDS011;41010;53.252;5.786;2023-01-25T09:07:32;75.82;;;28.13;;
55114;SDS011;41010;53.252;5.786;2023-01-25T09:10:02;77.38;;;26.90;;
55114;SDS011;41010;53.252;5.786;2023-01-25T09:12:32;68.65;;;25.60;;
55114;SDS011;41010;53.252;5.786;2023-01-25T09:15:00;72.28;;;26.35;;
55114;SDS011;41010;53.252;5.786;2023-01-25T09:17:28;68.97;;;24.90;;
55114;SDS011;41010;53.252;5.786;2023-01-25T09:19:55;80.57;;;25.73;;
55114;SDS011;41010;53.252;5.786;2023-01-25T09:22:23;70.47;;;24.08;;
55114;SDS011;41010;53.252;5.786;2023-01-25T09:24:51;79.03;;;23.38;;
55114;SDS011;41010;53.252;5.786;2023-01-25T09:27:20;81.03;;;25.15;;
55114;SDS011;41010;53.252;5.786;2023-01-25T09:29:47;76.13;;;24.35;;
55114;SDS011;41010;53.252;5.786;2023-01-25T09:32:14;88.00;;;27.30;;
55114;SDS011;41010;53.252;5.786;2023-01-25T09:34:43;88.30;;;26.60;;
55114;SDS011;41010;53.252;5.786;2023-01-25T09:37:10;84.30;;;28.25;;
55114;SDS011;41010;53.252;5.786;2023-01-25T09:39:38;84.28;;;27.85;;
55114;SDS011;41010;53.252;5.786;2023-01-25T09:42:08;92.10;;;27.70;;
55114;SDS011;41010;53.252;5.786;2023-01-25T09:44:41;91.40;;;28.15;;
55114;SDS011;41010;53.252;5.786;2023-01-25T09:47:15;104.72;;;30.75;;
55114;SDS011;41010;53.252;5.786;2023-01-25T09:49:50;102.13;;;28.50;;
55114;SDS011;41010;53.252;5.786;2023-01-25T09:55:20;100.53;;;29.23;;
55114;SDS011;41010;53.252;5.786;2023-01-25T09:57:48;108.15;;;31.30;;
55114;SDS011;41010;53.252;5.786;2023-01-25T10:00:18;123.38;;;31.70;;
55114;SDS011;41010;53.252;5.786;2023-01-25T10:02:48;129.82;;;32.65;;
55114;SDS011;41010;53.252;5.786;2023-01-25T10:05:20;111.53;;;32.78;;
55114;SDS011;41010;53.252;5.786;2023-01-25T10:07:51;125.70;;;33.15;;
55114;SDS011;41010;53.252;5.786;2023-01-25T10:10:22;115.80;;;31.92;;
55114;SDS011;41010;53.252;5.786;2023-01-25T10:12:52;129.77;;;34.03;;
55114;SDS011;41010;53.252;5.786;2023-01-25T10:15:20;132.40;;;33.55;;
55114;SDS011;41010;53.252;5.786;2023-01-25T10:17:50;144.35;;;34.63;;
55114;SDS011;41010;53.252;5.786;2023-01-25T10:20:25;130.23;;;32.88;;
55114;SDS011;41010;53.252;5.786;2023-01-25T10:22:59;132.63;;;33.50;;
55114;SDS011;41010;53.252;5.786;2023-01-25T10:25:31;135.25;;;35.22;;
55114;SDS011;41010;53.252;5.786;2023-01-25T10:30:52;144.05;;;36.38;;
55114;SDS011;41010;53.252;5.786;2023-01-25T10:33:21;143.23;;;35.88;;
55114;SDS011;41010;53.252;5.786;2023-01-25T10:35:49;136.60;;;34.90;;
55114;SDS011;41010;53.252;5.786;2023-01-25T10:38:18;150.18;;;35.45;;
55114;SDS011;41010;53.252;5.786;2023-01-25T10:40:47;154.00;;;36.28;;
55114;SDS011;41010;53.252;5.786;2023-01-25T10:43:17;134.70;;;34.70;;
55114;SDS011;41010;53.252;5.786;2023-01-25T10:45:44;140.48;;;35.88;;
55114;SDS011;41010;53.252;5.786;2023-01-25T10:48:13;134.52;;;37.35;;
55114;SDS011;41010;53.252;5.786;2023-01-25T10:50:42;145.90;;;38.10;;
55114;SDS011;41010;53.252;5.786;2023-01-25T10:56:20;139.80;;;36.08;;
55114;SDS011;41010;53.252;5.786;2023-01-25T10:58:48;139.60;;;35.80;;
55114;SDS011;41010;53.252;5.786;2023-01-25T11:01:26;148.68;;;36.78;;
55114;SDS011;41010;53.252;5.786;2023-01-25T11:03:54;134.75;;;36.05;;
55114;SDS011;41010;53.252;5.786;2023-01-25T11:06:28;143.07;;;38.25;;
55114;SDS011;41010;53.252;5.786;2023-01-25T11:08:56;157.20;;;38.53;;
55114;SDS011;41010;53.252;5.786;2023-01-25T11:11:25;155.38;;;38.47;;
55114;SDS011;41010;53.252;5.786;2023-01-25T11:13:55;148.32;;;38.90;;
55114;SDS011;41010;53.252;5.786;2023-01-25T11:16:26;153.82;;;38.80;;
55114;SDS011;41010;53.252;5.786;2023-01-25T11:18:54;154.50;;;37.42;;
55114;SDS011;41010;53.252;5.786;2023-01-25T11:21:22;148.85;;;38.92;;
55114;SDS011;41010;53.252;5.786;2023-01-25T11:24:00;150.52;;;38.92;;
55114;SDS011;41010;53.252;5.786;2023-01-25T11:26:29;148.90;;;39.33;;
55114;SDS011;41010;53.252;5.786;2023-01-25T11:29:09;147.85;;;39.17;;
55114;SDS011;41010;53.252;5.786;2023-01-25T11:31:37;153.85;;;39.80;;
55114;SDS011;41010;53.252;5.786;2023-01-25T11:34:07;147.93;;;39.88;;
55114;SDS011;41010;53.252;5.786;2023-01-25T11:36:36;144.85;;;40.63;;
55114;SDS011;41010;53.252;5.786;2023-01-25T11:39:11;157.95;;;41.50;;
55114;SDS011;41010;53.252;5.786;2023-01-25T11:41:47;139.60;;;40.80;;
55114;SDS011;41010;53.252;5.786;2023-01-25T11:44:27;141.90;;;39.80;;
55114;SDS011;41010;53.252;5.786;2023-01-25T11:46:58;130.10;;;38.53;;
55114;SDS011;41010;53.252;5.786;2023-01-25T11:49:34;149.10;;;42.30;;
55114;SDS011;41010;53.252;5.786;2023-01-25T11:52:07;147.90;;;43.88;;
55114;SDS011;41010;53.252;5.786;2023-01-25T11:57:33;131.65;;;39.05;;
55114;SDS011;41010;53.252;5.786;2023-01-25T12:00:15;121.60;;;37.67;;
55114;SDS011;41010;53.252;5.786;2023-01-25T12:05:31;129.23;;;40.50;;
55114;SDS011;41010;53.252;5.786;2023-01-25T12:08:04;122.45;;;40.85;;
55114;SDS011;41010;53.252;5.786;2023-01-25T12:10:39;116.95;;;41.53;;
55114;SDS011;41010;53.252;5.786;2023-01-25T12:13:10;121.25;;;39.53;;
55114;SDS011;41010;53.252;5.786;2023-01-25T12:18:26;110.63;;;37.40;;
55114;SDS011;41010;53.252;5.786;2023-01-25T12:20:59;112.00;;;38.17;;
55114;SDS011;41010;53.252;5.786;2023-01-25T12:23:31;105.72;;;36.35;;
55114;SDS011;41010;53.252;5.786;2023-01-25T12:26:04;104.87;;;37.77;;
55114;SDS011;41010;53.252;5.786;2023-01-25T12:28:35;102.30;;;37.35;;
55114;SDS011;41010;53.252;5.786;2023-01-25T12:31:06;99.47;;;35.43;;
55114;SDS011;41010;53.252;5.786;2023-01-25T12:33:37;98.10;;;37.75;;
55114;SDS011;41010;53.252;5.786;2023-01-25T12:36:07;106.65;;;36.58;;
55114;SDS011;41010;53.252;5.786;2023-01-25T12:38:37;92.47;;;34.70;;
55114;SDS011;41010;53.252;5.786;2023-01-25T12:41:07;89.45;;;35.80;;
55114;SDS011;41010;53.252;5.786;2023-01-25T12:43:39;90.75;;;36.22;;
55114;SDS011;41010;53.252;5.786;2023-01-25T12:46:09;85.30;;;34.42;;
55114;SDS011;41010;53.252;5.786;2023-01-25T12:48:39;90.38;;;36.17;;
55114;SDS011;41010;53.252;5.786;2023-01-25T12:51:07;89.00;;;36.33;;
55114;SDS011;41010;53.252;5.786;2023-01-25T12:53:36;93.10;;;33.70;;
55114;SDS011;41010;53.252;5.786;2023-01-25T12:56:03;91.15;;;35.08;;
55114;SDS011;41010;53.252;5.786;2023-01-25T12:58:34;89.03;;;35.30;;
55114;SDS011;41010;53.252;5.786;2023-01-25T13:01:10;87.32;;;33.03;;
55114;SDS011;41010;53.252;5.786;2023-01-25T13:03:42;91.20;;;34.78;;
55114;SDS011;41010;53.252;5.786;2023-01-25T13:06:14;93.43;;;34.78;;
55114;SDS011;41010;53.252;5.786;2023-01-25T13:08:46;93.93;;;36.78;;
55114;SDS011;41010;53.252;5.786;2023-01-25T13:11:15;85.28;;;34.78;;
55114;SDS011;41010;53.252;5.786;2023-01-25T13:13:44;96.60;;;35.30;;
55114;SDS011;41010;53.252;5.786;2023-01-25T13:16:23;90.82;;;34.75;;
55114;SDS011;41010;53.252;5.786;2023-01-25T13:18:50;92.72;;;35.17;;
55114;SDS011;41010;53.252;5.786;2023-01-25T13:24:10;92.90;;;37.00;;
55114;SDS011;41010;53.252;5.786;2023-01-25T13:26:44;93.82;;;36.72;;
55114;SDS011;41010;53.252;5.786;2023-01-25T13:31:56;89.32;;;38.85;;
55114;SDS011;41010;53.252;5.786;2023-01-25T13:37:15;85.20;;;34.65;;
55114;SDS011;41010;53.252;5.786;2023-01-25T13:39:43;89.95;;;35.70;;
55114;SDS011;41010;53.252;5.786;2023-01-25T13:42:21;87.03;;;35.75;;
55114;SDS011;41010;53.252;5.786;2023-01-25T13:44:49;88.95;;;34.53;;
55114;SDS011;41010;53.252;5.786;2023-01-25T13:47:21;86.95;;;36.90;;
55114;SDS011;41010;53.252;5.786;2023-01-25T13:49:51;88.90;;;35.65;;
55114;SDS011;41010;53.252;5.786;2023-01-25T13:52:19;91.28;;;35.53;;
55114;SDS011;41010;53.252;5.786;2023-01-25T13:54:47;85.20;;;33.60;;
55114;SDS011;41010;53.252;5.786;2023-01-25T13:57:18;84.70;;;33.40;;
55114;SDS011;41010;53.252;5.786;2023-01-25T13:59:46;83.90;;;34.88;;
55114;SDS011;41010;53.252;5.786;2023-01-25T14:02:15;89.95;;;34.63;;
55114;SDS011;41010;53.252;5.786;2023-01-25T14:04:45;80.68;;;34.22;;
55114;SDS011;41010;53.252;5.786;2023-01-25T14:07:13;82.78;;;33.90;;
55114;SDS011;41010;53.252;5.786;2023-01-25T14:09:42;81.38;;;34.53;;
55114;SDS011;41010;53.252;5.786;2023-01-25T14:12:10;79.05;;;33.28;;
55114;SDS011;41010;53.252;5.786;2023-01-25T14:14:38;80.20;;;34.70;;
55114;SDS011;41010;53.252;5.786;2023-01-25T14:17:12;78.55;;;33.42;;
55114;SDS011;41010;53.252;5.786;2023-01-25T14:19:41;82.80;;;36.35;;
55114;SDS011;41010;53.252;5.786;2023-01-25T14:22:23;80.85;;;34.28;;
55114;SDS011;41010;53.252;5.786;2023-01-25T14:25:01;81.38;;;34.83;;
55114;SDS011;41010;53.252;5.786;2023-01-25T14:27:29;78.72;;;33.65;;
55114;SDS011;41010;53.252;5.786;2023-01-25T14:29:56;82.05;;;33.17;;
55114;SDS011;41010;53.252;5.786;2023-01-25T14:32:23;77.65;;;33.33;;
55114;SDS011;41010;53.252;5.786;2023-01-25T14:34:52;78.72;;;35.53;;
55114;SDS011;41010;53.252;5.786;2023-01-25T14:37:20;79.38;;;34.13;;
55114;SDS011;41010;53.252;5.786;2023-01-25T14:39:48;83.15;;;33.70;;
55114;SDS011;41010;53.252;5.786;2023-01-25T14:42:16;79.47;;;34.90;;
55114;SDS011;41010;53.252;5.786;2023-01-25T14:44:44;83.30;;;33.45;;
55114;SDS011;41010;53.252;5.786;2023-01-25T14:47:18;87.47;;;35.83;;
55114;SDS011;41010;53.252;5.786;2023-01-25T14:49:47;79.28;;;36.22;;
55114;SDS011;41010;53.252;5.786;2023-01-25T14:52:15;89.45;;;36.40;;
55114;SDS011;41010;53.252;5.786;2023-01-25T14:54:47;87.35;;;38.15;;
55114;SDS011;41010;53.252;5.786;2023-01-25T14:57:24;95.45;;;40.40;;